createdAt,value
2018-10-11T00:00:50.040Z,30.68
2018-10-11T00:03:18.060Z,31.90
2018-10-11T00:05:46.109Z,31.73
2018-10-11T00:08:14.141Z,32.40
2018-10-11T00:10:42.181Z,31.40
2018-10-11T00:13:10.225Z,31.10
2018-10-11T00:15:38.257Z,31.37
2018-10-11T00:18:06.320Z,31.80
2018-10-11T00:20:34.346Z,31.48
2018-10-11T00:23:02.394Z,31.30
2018-10-11T00:25:30.419Z,31.93
2018-10-11T00:27:58.465Z,32.80
2018-10-11T00:30:26.505Z,31.87
2018-10-11T00:32:54.531Z,33.20
2018-10-11T00:35:22.583Z,33.80
2018-10-11T00:37:50.612Z,31.70
2018-10-11T00:40:18.667Z,31.73
2018-10-11T00:42:46.705Z,31.37
2018-10-11T00:45:14.741Z,32.87
2018-10-11T00:47:42.777Z,33.08
2018-10-11T00:50:10.837Z,31.85
2018-10-11T00:52:38.924Z,32.50
2018-10-11T00:55:07.073Z,32.00
2018-10-11T00:57:35.139Z,31.85
2018-10-11T01:00:03.200Z,30.65
2018-10-11T01:02:31.217Z,32.15
2018-10-11T01:04:59.248Z,31.52
2018-10-11T01:07:27.288Z,31.23
2018-10-11T01:09:55.381Z,31.90
2018-10-11T01:12:23.390Z,32.67
2018-10-11T01:14:51.426Z,31.97
2018-10-11T01:17:19.449Z,33.20
2018-10-11T01:19:47.512Z,32.88
2018-10-11T01:22:15.546Z,32.30
2018-10-11T01:24:43.596Z,33.67
2018-10-11T01:27:11.621Z,33.60
2018-10-11T01:29:39.749Z,34.53
2018-10-11T01:32:07.833Z,32.50
2018-10-11T01:34:35.884Z,32.87
2018-10-11T01:37:03.905Z,33.70
2018-10-11T01:39:32.366Z,32.80
2018-10-11T01:42:00.396Z,33.67
2018-10-11T01:44:28.464Z,33.20
2018-10-11T01:46:56.514Z,34.08
2018-10-11T01:49:24.564Z,33.20
2018-10-11T01:51:52.597Z,32.98
2018-10-11T01:54:20.642Z,33.80
2018-10-11T01:56:48.754Z,33.28
2018-10-11T01:59:16.728Z,35.65
2018-10-11T02:01:44.764Z,34.70
2018-10-11T02:04:12.797Z,34.27
2018-10-11T02:06:40.846Z,34.78
2018-10-11T02:09:08.932Z,35.05
2018-10-11T02:11:36.967Z,34.97
2018-10-11T02:14:05.001Z,35.10
2018-10-11T02:16:33.016Z,34.40
2018-10-11T02:19:01.113Z,35.68
2018-10-11T02:21:29.141Z,35.90
2018-10-11T02:23:57.188Z,35.90
2018-10-11T02:26:25.216Z,35.65
2018-10-11T02:28:53.280Z,37.35
2018-10-11T02:31:21.346Z,35.20
2018-10-11T02:33:49.389Z,35.10
2018-10-11T02:36:17.429Z,36.33
2018-10-11T02:38:45.485Z,35.92
2018-10-11T02:41:13.569Z,36.48
2018-10-11T02:43:41.613Z,37.07
2018-10-11T02:46:09.639Z,36.40
2018-10-11T02:48:37.692Z,35.60
2018-10-11T02:51:06.008Z,36.50
2018-10-11T02:53:34.040Z,36.60
2018-10-11T02:56:02.096Z,35.60
2018-10-11T02:58:41.609Z,36.70
2018-10-11T03:01:09.688Z,37.58
2018-10-11T03:03:37.729Z,37.05
2018-10-11T03:06:05.781Z,38.57
2018-10-11T03:08:33.829Z,39.20
2018-10-11T03:11:01.884Z,36.83
2018-10-11T03:13:29.937Z,38.05
2018-10-11T03:15:57.993Z,38.60
2018-10-11T03:18:26.023Z,38.75
2018-10-11T03:20:54.087Z,38.33
2018-10-11T03:23:22.126Z,39.45
2018-10-11T03:25:50.181Z,38.50
2018-10-11T03:28:18.286Z,38.45
2018-10-11T03:30:46.300Z,37.88
2018-10-11T03:33:14.965Z,38.50
2018-10-11T03:35:43.956Z,38.00
2018-10-11T03:38:12.224Z,37.23
2018-10-11T03:40:40.268Z,37.90
2018-10-11T03:43:08.312Z,36.88
2018-10-11T03:45:36.353Z,38.40
2018-10-11T03:48:04.396Z,38.15
2018-10-11T03:50:32.458Z,37.30
2018-10-11T03:53:00.499Z,36.63
2018-10-11T03:55:28.714Z,37.33
2018-10-11T03:57:56.756Z,36.80
2018-10-11T04:00:25.220Z,38.05
2018-10-11T04:02:53.264Z,38.20
2018-10-11T04:05:21.300Z,38.40
2018-10-11T04:07:49.353Z,38.77
2018-10-11T04:10:17.384Z,38.67
2018-10-11T04:12:45.438Z,38.88
2018-10-11T04:15:13.481Z,38.73
2018-10-11T04:17:41.556Z,37.13
2018-10-11T04:20:09.617Z,38.00
2018-10-11T04:22:37.668Z,37.98
2018-10-11T04:25:05.704Z,37.95
2018-10-11T04:27:33.740Z,38.50
2018-10-11T04:30:01.784Z,38.73
2018-10-11T04:32:29.822Z,38.60
2018-10-11T04:34:57.857Z,38.15
2018-10-11T04:37:25.904Z,39.23
2018-10-11T04:39:53.953Z,38.35
2018-10-11T04:42:22.017Z,40.52
2018-10-11T04:44:50.037Z,39.95
2018-10-11T04:47:18.078Z,40.23
2018-10-11T04:49:46.125Z,41.13
2018-10-11T04:52:14.185Z,40.08
2018-10-11T04:54:42.226Z,39.20
2018-10-11T04:57:10.248Z,40.58
2018-10-11T04:59:38.345Z,40.12
2018-10-11T05:02:06.353Z,40.35
2018-10-11T05:04:34.393Z,42.17
2018-10-11T05:07:02.429Z,42.00
2018-10-11T05:09:30.497Z,43.63
2018-10-11T05:11:58.580Z,42.55
2018-10-11T05:14:26.779Z,44.58
2018-10-11T05:16:54.857Z,42.55
2018-10-11T05:19:22.899Z,41.45
2018-10-11T05:21:50.966Z,39.88
2018-10-11T05:24:19.010Z,41.80
2018-10-11T05:26:47.078Z,40.28
2018-10-11T05:29:15.120Z,41.70
2018-10-11T05:31:43.156Z,41.80
2018-10-11T05:34:11.209Z,42.67
2018-10-11T05:36:39.268Z,41.33
2018-10-11T05:39:07.754Z,41.58
2018-10-11T05:41:36.211Z,43.15
2018-10-11T05:44:04.268Z,41.55
2018-10-11T05:46:33.221Z,43.10
2018-10-11T05:49:02.609Z,42.27
2018-10-11T05:51:31.236Z,42.30
2018-10-11T05:54:01.325Z,42.50
2018-10-11T05:56:31.812Z,41.65
2018-10-11T05:59:00.150Z,42.00
2018-10-11T06:01:28.279Z,42.55
2018-10-11T06:03:57.213Z,43.05
2018-10-11T06:06:25.297Z,42.45
2018-10-11T06:08:53.341Z,40.10
2018-10-11T06:11:21.373Z,40.48
2018-10-11T06:13:50.126Z,41.45
2018-10-11T06:16:18.193Z,41.95
2018-10-11T06:18:46.276Z,39.78
2018-10-11T06:21:14.747Z,40.08
2018-10-11T06:23:42.823Z,40.20
2018-10-11T06:26:10.987Z,41.50
2018-10-11T06:28:39.048Z,41.50
2018-10-11T06:31:07.090Z,40.70
2018-10-11T06:33:35.240Z,40.38
2018-10-11T06:36:03.380Z,42.43
2018-10-11T06:38:31.383Z,40.13
2018-10-11T06:40:59.423Z,40.55
2018-10-11T06:43:28.364Z,40.38
2018-10-11T06:45:56.441Z,40.03
2018-10-11T06:48:24.497Z,41.03
2018-10-11T06:50:52.557Z,40.20
2018-10-11T06:53:20.624Z,40.45
2018-10-11T06:55:48.745Z,39.70
2018-10-11T06:58:16.757Z,39.10
2018-10-11T07:00:44.799Z,40.10
2018-10-11T07:03:12.872Z,38.83
2018-10-11T07:05:40.918Z,40.08
2018-10-11T07:08:09.412Z,39.30
2018-10-11T07:10:37.476Z,39.23
2018-10-11T07:13:05.694Z,38.53
2018-10-11T07:15:33.757Z,38.00
2018-10-11T07:18:01.821Z,36.63
2018-10-11T07:20:29.892Z,37.90
2018-10-11T07:22:57.936Z,37.08
2018-10-11T07:25:26.010Z,38.28
2018-10-11T07:27:54.054Z,38.17
2018-10-11T07:30:22.112Z,37.17
2018-10-11T07:32:50.173Z,37.08
2018-10-11T07:35:18.378Z,37.53
2018-10-11T07:37:46.337Z,37.57
2018-10-11T07:40:14.449Z,35.83
2018-10-11T07:42:42.605Z,35.38
2018-10-11T07:45:11.470Z,35.58
2018-10-11T07:47:39.531Z,34.58
2018-10-11T07:50:07.854Z,33.95
2018-10-11T07:52:35.927Z,34.60
2018-10-11T07:55:04.273Z,35.10
2018-10-11T07:57:32.375Z,36.10
2018-10-11T08:00:00.454Z,35.05
2018-10-11T08:02:28.605Z,35.70
2018-10-11T08:04:56.741Z,34.45
2018-10-11T08:07:24.939Z,33.65
2018-10-11T08:09:53.442Z,34.50
2018-10-11T08:12:21.497Z,34.88
2018-10-11T08:14:49.852Z,33.55
2018-10-11T08:17:19.072Z,34.23
2018-10-11T08:19:47.595Z,33.60
2018-10-11T08:22:16.481Z,34.30
2018-10-11T08:24:48.319Z,34.58
2018-10-11T08:27:17.441Z,32.80
2018-10-11T08:29:46.325Z,33.15
2018-10-11T08:32:15.146Z,31.80
2018-10-11T08:34:44.066Z,33.48
2018-10-11T08:37:13.107Z,33.95
2018-10-11T08:39:41.192Z,32.90
2018-10-11T08:42:09.247Z,32.50
2018-10-11T08:44:37.302Z,33.38
2018-10-11T08:47:05.352Z,33.40
2018-10-11T08:49:33.425Z,32.33
2018-10-11T08:52:01.472Z,33.00
2018-10-11T08:54:34.957Z,31.80
2018-10-11T08:57:03.000Z,32.05
2018-10-11T08:59:31.096Z,32.30
2018-10-11T09:01:59.093Z,31.95
2018-10-11T09:04:27.144Z,32.33
2018-10-11T09:06:55.196Z,33.28
2018-10-11T09:09:23.312Z,32.10
2018-10-11T09:11:51.337Z,32.03
2018-10-11T09:14:19.387Z,32.88
2018-10-11T09:16:47.439Z,31.90
2018-10-11T09:19:15.502Z,31.70
2018-10-11T09:21:43.554Z,32.17
2018-10-11T09:24:11.605Z,31.30
2018-10-11T09:26:39.655Z,30.70
2018-10-11T09:29:08.577Z,31.12
2018-10-11T09:31:36.645Z,30.68
2018-10-11T09:34:04.697Z,31.90
2018-10-11T09:36:32.793Z,32.17
2018-10-11T09:39:00.800Z,31.45
2018-10-11T09:41:28.839Z,31.12
2018-10-11T09:43:56.889Z,31.37
2018-10-11T09:46:24.961Z,32.05
2018-10-11T09:48:53.095Z,30.62
2018-10-11T09:51:21.091Z,31.33
2018-10-11T09:53:49.124Z,29.07
2018-10-11T09:56:17.166Z,33.02
2018-10-11T09:58:45.209Z,31.45
2018-10-11T10:01:18.818Z,30.90
2018-10-11T10:03:47.033Z,30.40
2018-10-11T10:06:15.105Z,29.32
2018-10-11T10:08:43.140Z,29.15
2018-10-11T10:11:11.209Z,29.83
2018-10-11T10:13:39.254Z,30.02
2018-10-11T10:16:07.296Z,30.77
2018-10-11T10:18:35.382Z,28.27
2018-10-11T10:21:03.487Z,29.12
2018-10-11T10:23:31.521Z,28.20
2018-10-11T10:25:59.570Z,28.23
2018-10-11T10:28:27.635Z,27.40
2018-10-11T10:30:55.991Z,28.27
2018-10-11T10:33:54.988Z,27.00
2018-10-11T10:36:23.008Z,28.05
2018-10-11T10:38:51.046Z,27.10
2018-10-11T10:41:19.080Z,26.60
2018-10-11T10:43:47.121Z,26.05
2018-10-11T10:46:15.153Z,25.30
2018-10-11T10:48:43.203Z,25.40
2018-10-11T10:51:11.252Z,25.37
2018-10-11T10:53:39.311Z,25.40
2018-10-11T10:56:07.355Z,27.10
2018-10-11T10:58:35.597Z,25.27
2018-10-11T11:01:03.620Z,24.35
2018-10-11T11:03:31.660Z,25.15
2018-10-11T11:05:59.746Z,25.08
2018-10-11T11:08:27.795Z,25.27
2018-10-11T11:10:55.833Z,24.72
2018-10-11T11:13:23.872Z,25.30
2018-10-11T11:15:51.977Z,24.95
2018-10-11T11:18:20.018Z,25.82
2018-10-11T11:20:48.077Z,25.62
2018-10-11T11:23:16.133Z,23.18
2018-10-11T11:25:44.181Z,25.50
2018-10-11T11:28:12.237Z,22.50
2018-10-11T11:30:40.290Z,24.52
2018-10-11T11:33:08.417Z,23.67
2018-10-11T11:35:36.456Z,22.62
2018-10-11T11:38:04.513Z,24.80
2018-10-11T11:40:32.545Z,23.60
2018-10-11T11:43:00.637Z,23.07
2018-10-11T11:45:28.650Z,24.70
2018-10-11T11:47:56.684Z,22.77
2018-10-11T11:50:24.794Z,23.02
2018-10-11T11:52:52.800Z,23.00
2018-10-11T11:55:20.845Z,22.65
2018-10-11T11:57:48.913Z,23.42
2018-10-11T12:00:16.936Z,21.90
2018-10-11T12:02:45.028Z,22.23
2018-10-11T12:05:13.098Z,20.80
2018-10-11T12:07:41.089Z,20.90
2018-10-11T12:10:09.128Z,21.12
2018-10-11T12:13:09.146Z,21.10
2018-10-11T12:15:38.140Z,21.05
2018-10-11T12:18:06.804Z,21.40
2018-10-11T12:20:37.052Z,21.37
2018-10-11T12:23:06.244Z,22.25
2018-10-11T12:25:34.615Z,20.90
2018-10-11T12:28:02.666Z,22.95
2018-10-11T12:30:30.721Z,21.97
2018-10-11T12:32:58.784Z,21.85
2018-10-11T12:35:27.304Z,20.50
2018-10-11T12:37:55.350Z,20.30
2018-10-11T12:40:24.226Z,21.37
2018-10-11T12:42:51.484Z,20.30
2018-10-11T12:45:19.718Z,20.55
2018-10-11T12:47:47.781Z,18.40
2018-10-11T12:50:15.849Z,19.50
2018-10-11T12:52:43.923Z,18.95
2018-10-11T12:55:12.274Z,20.52
2018-10-11T12:57:40.658Z,19.25
2018-10-11T13:00:11.052Z,19.52
2018-10-11T13:02:39.169Z,18.42
2018-10-11T13:05:08.411Z,19.02
2018-10-11T13:07:36.475Z,19.80
2018-10-11T13:10:08.477Z,18.20
2018-10-11T13:12:36.563Z,18.37
2018-10-11T13:15:04.709Z,18.57
2018-10-11T13:17:38.428Z,19.02
2018-10-11T13:20:00.828Z,18.75
2018-10-11T13:22:28.915Z,18.77
2018-10-11T13:24:56.965Z,17.87
2018-10-11T13:27:25.449Z,17.92
2018-10-11T13:29:53.526Z,18.48
2018-10-11T13:32:21.656Z,19.62
2018-10-11T13:34:49.845Z,19.48
2018-10-11T13:37:17.883Z,18.70
2018-10-11T13:39:52.025Z,19.00
2018-10-11T13:42:13.986Z,19.15
2018-10-11T13:44:42.013Z,18.98
2018-10-11T13:47:10.108Z,19.70
2018-10-11T13:49:38.093Z,19.02
2018-10-11T13:52:06.550Z,18.82
2018-10-11T13:54:34.592Z,18.30
2018-10-11T13:57:03.348Z,18.27
2018-10-11T13:59:30.678Z,18.77
2018-10-11T14:01:58.740Z,19.03
2018-10-11T14:04:26.836Z,18.87
2018-10-11T14:06:54.845Z,19.35
2018-10-11T14:09:22.873Z,18.40
2018-10-11T14:11:50.931Z,19.77
2018-10-11T14:14:19.001Z,19.30
2018-10-11T14:16:47.073Z,19.30
2018-10-11T14:19:15.139Z,19.40
2018-10-11T14:21:43.185Z,19.67
2018-10-11T14:24:11.330Z,19.50
2018-10-11T14:26:39.320Z,18.75
2018-10-11T14:29:07.385Z,18.45
2018-10-11T14:31:35.437Z,19.32
2018-10-11T14:34:03.484Z,19.20
2018-10-11T14:36:31.577Z,19.30
2018-10-11T14:38:59.605Z,18.92
2018-10-11T14:41:27.661Z,19.05
2018-10-11T14:43:55.712Z,19.47
2018-10-11T14:46:23.744Z,19.67
2018-10-11T14:48:51.833Z,17.80
2018-10-11T14:51:19.966Z,18.00
2018-10-11T14:53:52.781Z,17.80
2018-10-11T14:56:16.311Z,18.17
2018-10-11T14:58:44.382Z,17.50
2018-10-11T15:01:12.551Z,19.20
2018-10-11T15:03:40.584Z,18.50
2018-10-11T15:06:08.629Z,18.02
2018-10-11T15:08:36.668Z,18.20
2018-10-11T15:11:04.874Z,18.37
2018-10-11T15:13:32.788Z,18.50
2018-10-11T15:16:00.836Z,18.90
2018-10-11T15:18:28.885Z,18.52
2018-10-11T15:20:57.893Z,17.70
2018-10-11T15:23:26.333Z,20.92
2018-10-11T15:25:54.453Z,18.92
2018-10-11T15:28:22.514Z,19.10
2018-10-11T15:30:50.572Z,19.90
2018-10-11T15:33:18.708Z,18.98
2018-10-11T15:35:46.784Z,19.52
2018-10-11T15:38:14.845Z,19.00
2018-10-11T15:40:42.889Z,18.30
2018-10-11T15:43:10.924Z,17.80
2018-10-11T15:45:39.053Z,19.90
2018-10-11T15:48:07.105Z,19.15
2018-10-11T15:50:35.148Z,18.90
2018-10-11T15:53:03.249Z,19.70
2018-10-11T15:55:31.309Z,19.57
2018-10-11T15:58:02.961Z,19.35
2018-10-11T16:00:31.005Z,20.80
2018-10-11T16:02:59.150Z,21.60
2018-10-11T16:05:27.251Z,19.60
2018-10-11T16:07:55.257Z,19.98
2018-10-11T16:10:23.310Z,20.43
2018-10-11T16:12:51.361Z,19.90
2018-10-11T16:15:19.399Z,19.87
2018-10-11T16:17:47.476Z,21.30
2018-10-11T16:20:15.487Z,21.60
2018-10-11T16:22:43.539Z,19.70
2018-10-11T16:25:11.602Z,20.75
2018-10-11T16:27:39.681Z,21.48
2018-10-11T16:30:07.764Z,21.60
2018-10-11T16:32:35.828Z,20.60
2018-10-11T16:35:03.944Z,22.10
2018-10-11T16:37:31.985Z,23.00
2018-10-11T16:40:00.024Z,20.43
2018-10-11T16:42:28.111Z,21.13
2018-10-11T16:44:56.157Z,22.17
2018-10-11T16:47:24.238Z,21.23
2018-10-11T16:49:52.303Z,22.10
2018-10-11T16:52:20.356Z,23.02
2018-10-11T16:54:48.452Z,20.92
2018-10-11T16:57:16.854Z,21.25
2018-10-11T16:59:45.245Z,21.00
2018-10-11T17:02:13.512Z,20.88
2018-10-11T17:04:41.568Z,19.07
2018-10-11T17:07:09.612Z,20.60
2018-10-11T17:09:37.719Z,21.37
2018-10-11T17:12:05.854Z,21.60
2018-10-11T17:14:33.892Z,20.72
2018-10-11T17:17:01.962Z,20.35
2018-10-11T17:19:30.054Z,19.85
2018-10-11T17:21:58.112Z,21.35
2018-10-11T17:24:26.165Z,21.07
2018-10-11T17:26:54.209Z,22.20
2018-10-11T17:29:22.236Z,21.52
2018-10-11T17:31:50.298Z,22.80
2018-10-11T17:34:18.365Z,22.65
2018-10-11T17:36:46.441Z,21.50
2018-10-11T17:39:14.477Z,23.77
2018-10-11T17:41:42.540Z,22.90
2018-10-11T17:44:11.424Z,24.70
2018-10-11T17:46:39.545Z,21.50
2018-10-11T17:49:07.578Z,21.30
2018-10-11T17:51:35.593Z,22.15
2018-10-11T17:54:03.648Z,22.13
2018-10-11T17:56:31.907Z,22.30
2018-10-11T17:58:59.938Z,20.95
2018-10-11T18:01:27.960Z,20.75
2018-10-11T18:03:56.008Z,20.80
2018-10-11T18:06:24.060Z,20.20
2018-10-11T18:08:52.080Z,20.70
2018-10-11T18:11:20.113Z,20.70
2018-10-11T18:13:48.189Z,19.98
2018-10-11T18:16:16.309Z,20.60
2018-10-11T18:18:44.308Z,21.90
2018-10-11T18:21:12.369Z,19.17
2018-10-11T18:23:41.785Z,20.50
2018-10-11T18:26:09.861Z,20.23
2018-10-11T18:28:37.921Z,19.65
2018-10-11T18:31:06.353Z,19.27
2018-10-11T18:33:34.385Z,19.45
2018-10-11T18:36:02.488Z,19.20
2018-10-11T18:38:30.568Z,18.00
2018-10-11T18:40:58.789Z,20.10
2018-10-11T18:43:26.917Z,21.75
2018-10-11T18:45:54.973Z,22.00
2018-10-11T18:48:23.030Z,20.25
2018-10-11T18:50:51.121Z,20.25
2018-10-11T18:53:19.128Z,19.60
2018-10-11T18:55:47.170Z,19.23
2018-10-11T18:58:15.217Z,19.77
2018-10-11T19:00:43.248Z,19.82
2018-10-11T19:03:11.281Z,20.00
2018-10-11T19:05:39.356Z,19.45
2018-10-11T19:08:07.417Z,18.55
2018-10-11T19:10:35.468Z,19.67
2018-10-11T19:13:03.696Z,19.40
2018-10-11T19:15:31.894Z,20.60
2018-10-11T19:18:00.029Z,20.05
2018-10-11T19:20:28.098Z,19.67
2018-10-11T19:22:56.141Z,19.37
2018-10-11T19:25:24.201Z,19.00
2018-10-11T19:27:52.564Z,19.85
2018-10-11T19:30:20.621Z,20.35
2018-10-11T19:32:48.773Z,20.00
2018-10-11T19:35:17.065Z,19.98
2018-10-11T19:37:45.268Z,20.95
2018-10-11T19:40:13.359Z,21.50
2018-10-11T19:42:41.381Z,19.50
2018-10-11T19:45:09.429Z,21.10
2018-10-11T19:47:37.474Z,20.88
2018-10-11T19:50:05.837Z,21.20
2018-10-11T19:52:34.175Z,20.77
2018-10-11T19:55:02.249Z,20.15
2018-10-11T19:57:30.301Z,19.80
2018-10-11T19:59:58.344Z,20.35
2018-10-11T20:02:26.404Z,19.05
2018-10-11T20:04:54.445Z,19.67
2018-10-11T20:07:22.465Z,18.85
2018-10-11T20:09:50.517Z,20.27
2018-10-11T20:12:18.592Z,20.17
2018-10-11T20:14:46.758Z,21.05
2018-10-11T20:17:14.795Z,21.87
2018-10-11T20:19:42.828Z,21.82
2018-10-11T20:22:11.734Z,21.07
2018-10-11T20:24:39.775Z,21.10
2018-10-11T20:27:07.845Z,22.17
2018-10-11T20:29:36.367Z,22.10
2018-10-11T20:32:04.438Z,23.62
2018-10-11T20:34:32.614Z,21.52
2018-10-11T20:37:00.640Z,21.60
2018-10-11T20:39:28.696Z,23.30
2018-10-11T20:41:56.726Z,21.55
2018-10-11T20:44:24.776Z,22.45
2018-10-11T20:46:52.828Z,21.23
2018-10-11T20:49:20.862Z,23.32
2018-10-11T20:51:48.900Z,21.73
2018-10-11T20:54:16.939Z,22.77
2018-10-11T20:56:44.977Z,22.50
2018-10-11T20:59:13.029Z,21.97
2018-10-11T21:01:41.081Z,22.42
2018-10-11T21:04:09.128Z,20.93
2018-10-11T21:06:37.177Z,20.88
2018-10-11T21:09:07.563Z,21.50
2018-10-11T21:11:35.631Z,20.90
2018-10-11T21:14:03.677Z,20.30
2018-10-11T21:16:31.966Z,20.70
2018-10-11T21:19:00.009Z,20.68
2018-10-11T21:21:28.054Z,22.30
2018-10-11T21:23:56.093Z,21.45
2018-10-11T21:26:24.147Z,22.65
2018-10-11T21:28:52.263Z,22.80
2018-10-11T21:31:20.314Z,21.87
2018-10-11T21:33:48.400Z,22.33
2018-10-11T21:36:16.441Z,21.30
2018-10-11T21:38:44.480Z,20.02
2018-10-11T21:41:12.561Z,21.05
2018-10-11T21:43:40.608Z,21.55
2018-10-11T21:46:08.738Z,21.10
2018-10-11T21:48:36.713Z,22.10
2018-10-11T21:51:04.772Z,23.02
2018-10-11T21:53:32.825Z,23.38
2018-10-11T21:56:00.847Z,22.00
2018-10-11T21:58:28.880Z,21.37
2018-10-11T22:01:02.424Z,21.73
2018-10-11T22:03:30.458Z,22.50
2018-10-11T22:05:58.490Z,22.35
2018-10-11T22:08:26.569Z,21.30
2018-10-11T22:10:54.568Z,22.67
2018-10-11T22:13:22.610Z,22.00
2018-10-11T22:15:50.697Z,21.43
2018-10-11T22:18:18.690Z,22.27
2018-10-11T22:20:46.777Z,22.30
2018-10-11T22:23:14.797Z,21.52
2018-10-11T22:25:42.830Z,21.62
2018-10-11T22:28:10.860Z,21.37
2018-10-11T22:30:38.892Z,22.05
2018-10-11T22:33:06.941Z,21.90
2018-10-11T22:35:35.012Z,22.40
2018-10-11T22:38:03.053Z,21.50
2018-10-11T22:40:31.299Z,21.42
2018-10-11T22:42:59.333Z,21.93
2018-10-11T22:45:27.765Z,22.00
2018-10-11T22:47:56.549Z,21.68
2018-10-11T22:50:25.912Z,22.65
2018-10-11T22:52:54.317Z,23.65
2018-10-11T22:55:22.469Z,22.50
2018-10-11T22:57:50.528Z,22.22
2018-10-11T23:00:18.556Z,22.02
2018-10-11T23:02:46.609Z,22.07
2018-10-11T23:05:14.646Z,21.62
2018-10-11T23:07:42.680Z,22.03
2018-10-11T23:10:10.705Z,22.82
2018-10-11T23:12:38.872Z,23.32
2018-10-11T23:15:06.977Z,22.55
2018-10-11T23:17:34.953Z,23.45
2018-10-11T23:20:02.982Z,22.65
2018-10-11T23:22:31.024Z,22.40
2018-10-11T23:24:59.061Z,23.67
2018-10-11T23:27:27.096Z,22.87
2018-10-11T23:29:55.120Z,21.90
2018-10-11T23:32:23.171Z,22.55
2018-10-11T23:34:51.218Z,20.95
2018-10-11T23:37:19.236Z,22.35
2018-10-11T23:39:47.273Z,21.95
2018-10-11T23:42:15.301Z,21.57
2018-10-11T23:44:43.349Z,21.77
2018-10-11T23:47:11.389Z,21.50
2018-10-11T23:49:39.424Z,22.50
2018-10-11T23:52:07.449Z,21.60
2018-10-11T23:54:35.705Z,22.60
2018-10-11T23:57:03.743Z,21.93
2018-10-11T23:59:31.784Z,22.62
